createdAt,value
2019-05-03T00:03:23.072Z,8.50
2019-05-03T00:08:27.998Z,8.60
2019-05-03T00:13:32.871Z,8.50
2019-05-03T00:18:37.807Z,8.60
2019-05-03T00:23:42.657Z,8.50
2019-05-03T00:28:47.486Z,8.50
2019-05-03T00:33:53.972Z,8.60
2019-05-03T00:39:01.940Z,8.60
2019-05-03T00:44:06.926Z,8.60
2019-05-03T00:49:12.065Z,8.60
2019-05-03T00:54:17.050Z,8.60
2019-05-03T00:59:22.178Z,8.50
2019-05-03T01:04:27.162Z,8.50
2019-05-03T01:09:32.532Z,8.50
2019-05-03T01:14:39.041Z,8.50
2019-05-03T01:19:43.963Z,8.40
2019-05-03T01:24:49.238Z,8.40
2019-05-03T01:29:54.588Z,8.40
2019-05-03T01:34:59.647Z,8.40
2019-05-03T01:40:08.651Z,8.30
2019-05-03T01:45:13.606Z,8.30
2019-05-03T01:50:20.121Z,8.30
2019-05-03T01:55:26.695Z,8.30
2019-05-03T02:00:31.905Z,8.30
2019-05-03T02:05:42.971Z,8.30
2019-05-03T02:10:48.080Z,8.30
2019-05-03T02:15:53.053Z,8.30
2019-05-03T02:20:57.854Z,8.30
2019-05-03T02:26:03.094Z,8.30
2019-05-03T02:31:08.081Z,8.30
2019-05-03T02:36:13.624Z,8.30
2019-05-03T02:41:18.684Z,8.30
2019-05-03T02:46:25.639Z,8.30
2019-05-03T02:51:30.538Z,8.30
2019-05-03T02:56:35.960Z,8.30
2019-05-03T03:01:42.137Z,8.30
2019-05-03T03:06:48.090Z,8.30
2019-05-03T03:11:55.826Z,8.30
2019-05-03T03:17:02.652Z,8.30
2019-05-03T03:22:10.889Z,8.20
2019-05-03T03:27:18.666Z,8.20
2019-05-03T03:32:30.129Z,8.10
2019-05-03T03:37:35.431Z,8.00
2019-05-03T03:42:44.836Z,7.90
2019-05-03T03:47:51.668Z,7.90
2019-05-03T03:52:58.818Z,7.80
2019-05-03T03:58:06.439Z,7.80
2019-05-03T04:03:10.922Z,7.70
2019-05-03T04:08:16.126Z,7.70
2019-05-03T04:13:25.310Z,7.80
2019-05-03T04:18:39.736Z,7.80
2019-05-03T04:23:45.880Z,7.90
2019-05-03T04:28:50.974Z,7.90
2019-05-03T04:33:56.389Z,7.90
2019-05-03T04:39:01.397Z,8.00
2019-05-03T04:44:06.626Z,8.00
2019-05-03T04:49:11.621Z,8.00
2019-05-03T04:54:20.813Z,8.00
2019-05-03T04:59:25.752Z,8.10
2019-05-03T05:04:30.654Z,8.10
2019-05-03T05:09:35.460Z,8.20
2019-05-03T05:14:41.267Z,8.20
2019-05-03T05:19:54.919Z,8.20
2019-05-03T05:25:01.684Z,8.10
2019-05-03T05:30:08.797Z,8.10
2019-05-03T05:35:14.365Z,8.10
2019-05-03T05:40:24.422Z,8.10
2019-05-03T05:45:28.718Z,8.00
2019-05-03T05:50:35.351Z,7.90
2019-05-03T05:55:50.643Z,8.00
2019-05-03T06:00:57.151Z,8.20
2019-05-03T06:06:05.315Z,8.40
2019-05-03T06:11:26.735Z,8.50
2019-05-03T06:16:36.153Z,8.60
2019-05-03T06:21:44.442Z,8.50
2019-05-03T06:27:00.136Z,8.40
2019-05-03T06:32:09.350Z,8.30
2019-05-03T06:37:21.752Z,8.50
2019-05-03T06:42:26.600Z,8.80
2019-05-03T06:47:31.460Z,8.80
2019-05-03T06:52:36.295Z,8.80
2019-05-03T06:57:45.620Z,9.10
2019-05-03T07:02:50.867Z,9.50
2019-05-03T07:08:15.151Z,10.10
2019-05-03T07:13:20.246Z,10.40
2019-05-03T07:18:25.341Z,10.60
2019-05-03T07:23:30.177Z,10.00
2019-05-03T07:28:46.301Z,10.70
2019-05-03T07:33:41.540Z,10.40
2019-05-03T07:38:46.388Z,9.90
2019-05-03T07:43:51.246Z,9.90
2019-05-03T07:48:56.090Z,10.10
2019-05-03T07:54:00.925Z,9.70
2019-05-03T07:59:07.351Z,9.70
2019-05-03T08:04:12.275Z,9.50
2019-05-03T08:09:17.124Z,9.20
2019-05-03T08:14:21.894Z,9.40
2019-05-03T08:19:27.212Z,9.50
2019-05-03T08:24:32.208Z,9.40
2019-05-03T08:29:38.670Z,9.30
2019-05-03T08:34:45.364Z,9.80
2019-05-03T08:39:50.273Z,10.50
2019-05-03T08:44:55.428Z,11.00
2019-05-03T08:50:00.465Z,10.10
2019-05-03T08:55:06.385Z,9.70
2019-05-03T09:00:14.494Z,9.60
2019-05-03T09:05:19.921Z,10.20
2019-05-03T09:10:29.349Z,10.30
2019-05-03T09:15:35.163Z,10.20
2019-05-03T09:20:40.076Z,10.10
2019-05-03T09:25:45.871Z,11.20
2019-05-03T09:30:50.976Z,12.30
2019-05-03T09:35:55.808Z,11.60
2019-05-03T09:41:00.651Z,10.20
2019-05-03T09:46:05.472Z,10.70
2019-05-03T09:51:10.319Z,11.70
2019-05-03T09:56:15.568Z,12.70
2019-05-03T10:01:20.735Z,12.80
2019-05-03T10:06:25.579Z,12.40
2019-05-03T10:11:30.350Z,12.60
2019-05-03T10:16:36.839Z,11.90
2019-05-03T10:21:44.900Z,11.20
2019-05-03T10:26:49.977Z,9.90
2019-05-03T10:31:56.457Z,9.90
2019-05-03T10:37:01.366Z,10.80
2019-05-03T10:42:06.217Z,12.00
2019-05-03T10:47:11.062Z,12.70
2019-05-03T10:52:16.710Z,13.00
2019-05-03T10:57:24.834Z,13.50
2019-05-03T11:02:35.268Z,13.50
2019-05-03T11:07:40.507Z,13.40
2019-05-03T11:12:45.355Z,14.20
2019-05-03T11:17:50.262Z,14.40
2019-05-03T11:22:55.209Z,14.00
2019-05-03T11:28:01.678Z,13.60
2019-05-03T11:33:15.271Z,13.40
2019-05-03T11:38:27.725Z,12.90
2019-05-03T11:43:32.567Z,13.10
2019-05-03T11:48:37.396Z,14.20
2019-05-03T11:53:42.239Z,14.70
2019-05-03T11:58:47.086Z,15.00
2019-05-03T12:03:51.995Z,15.00
2019-05-03T12:08:56.764Z,14.60
2019-05-03T12:14:11.057Z,14.60
2019-05-03T12:19:19.695Z,13.90
2019-05-03T12:24:26.476Z,13.10
2019-05-03T12:29:30.478Z,12.00
2019-05-03T12:34:35.435Z,10.60
2019-05-03T12:39:40.266Z,10.10
2019-05-03T12:44:46.041Z,10.00
2019-05-03T12:49:51.027Z,10.10
2019-05-03T12:54:55.859Z,10.30
2019-05-03T13:00:15.641Z,10.50
2019-05-03T13:05:20.660Z,10.50
2019-05-03T13:10:26.573Z,10.90
2019-05-03T13:15:31.692Z,11.60
2019-05-03T13:20:36.536Z,12.40
2019-05-03T13:25:41.456Z,13.00
2019-05-03T13:30:46.310Z,12.00
2019-05-03T13:35:51.125Z,11.60
2019-05-03T13:40:55.877Z,11.40
2019-05-03T13:46:00.722Z,10.90
2019-05-03T13:51:05.595Z,10.60
2019-05-03T13:56:10.388Z,10.90
2019-05-03T14:01:15.231Z,11.20
2019-05-03T14:06:20.007Z,11.30
2019-05-03T14:11:25.411Z,11.50
2019-05-03T14:16:30.470Z,11.20
2019-05-03T14:21:48.475Z,10.80
2019-05-03T14:26:55.152Z,10.70
2019-05-03T14:31:59.960Z,10.80
2019-05-03T14:37:04.797Z,11.10
2019-05-03T14:42:09.627Z,11.30
2019-05-03T14:47:14.777Z,11.80
2019-05-03T14:52:19.776Z,12.40
2019-05-03T14:57:26.249Z,12.80
2019-05-03T15:02:43.675Z,13.00
2019-05-03T15:07:42.444Z,13.10
2019-05-03T15:12:47.272Z,13.00
2019-05-03T15:17:52.101Z,12.90
2019-05-03T15:22:56.933Z,12.60
2019-05-03T15:28:01.872Z,12.80
2019-05-03T15:33:06.718Z,12.50
2019-05-03T15:38:11.557Z,12.70
2019-05-03T15:43:20.860Z,12.60
2019-05-03T15:48:27.477Z,12.60
2019-05-03T15:53:32.324Z,12.60
2019-05-03T15:58:37.145Z,12.30
2019-05-03T16:03:41.976Z,11.90
2019-05-03T16:08:46.809Z,11.60
2019-05-03T16:13:51.661Z,9.60
2019-05-03T16:18:56.498Z,8.70
2019-05-03T16:24:01.324Z,8.40
2019-05-03T16:29:15.027Z,8.50
2019-05-03T16:34:20.827Z,8.40
2019-05-03T16:39:26.949Z,8.60
2019-05-03T16:44:31.927Z,8.70
2019-05-03T16:49:36.807Z,8.90
2019-05-03T16:54:41.572Z,9.00
2019-05-03T17:12:42.451Z,9.00
2019-05-03T17:17:47.336Z,9.20
2019-05-03T17:22:52.174Z,9.20
2019-05-03T17:27:57.010Z,9.20
2019-05-03T17:33:01.860Z,9.20
2019-05-03T17:38:06.687Z,9.20
2019-05-03T17:43:29.682Z,9.30
2019-05-03T17:48:34.947Z,9.20
2019-05-03T17:53:56.598Z,9.10
2019-05-03T17:59:04.552Z,9.30
2019-05-03T18:04:11.153Z,9.30
2019-05-03T18:09:17.693Z,9.10
2019-05-03T18:14:22.815Z,9.00
2019-05-03T18:19:27.839Z,9.00
2019-05-03T18:24:52.358Z,8.90
2019-05-03T18:29:57.214Z,8.90
2019-05-03T18:35:02.106Z,8.90
2019-05-03T18:40:08.323Z,8.90
2019-05-03T18:45:31.444Z,8.90
2019-05-03T18:50:36.375Z,8.80
2019-05-03T18:55:41.275Z,8.80
2019-05-03T19:00:46.112Z,8.60
2019-05-03T19:05:52.611Z,8.60
2019-05-03T19:11:05.148Z,8.50
2019-05-03T19:16:24.543Z,8.30
2019-05-03T19:21:29.721Z,8.30
2019-05-03T19:26:35.317Z,8.20
2019-05-03T19:31:40.498Z,8.20
2019-05-03T19:36:45.730Z,8.10
2019-05-03T19:41:50.830Z,7.90
2019-05-03T19:46:55.707Z,7.90
2019-05-03T19:52:00.724Z,7.70
2019-05-03T19:57:05.574Z,7.70
2019-05-03T20:02:17.873Z,7.60
2019-05-03T20:07:27.101Z,7.60
2019-05-03T20:12:32.070Z,7.60
2019-05-03T20:17:36.895Z,7.60
2019-05-03T20:22:41.740Z,7.50
2019-05-03T20:27:46.585Z,7.50
2019-05-03T20:32:51.427Z,7.40
2019-05-03T20:37:56.271Z,7.20
2019-05-03T20:43:08.668Z,7.10
2019-05-03T20:48:15.143Z,6.90
2019-05-03T20:53:20.125Z,6.80
2019-05-03T20:58:25.246Z,6.70
2019-05-03T21:03:30.299Z,6.60
2019-05-03T21:08:35.144Z,6.50
2019-05-03T21:13:42.385Z,6.40
2019-05-03T21:18:47.991Z,6.40
2019-05-03T21:24:12.664Z,6.40
2019-05-03T21:29:17.503Z,6.30
2019-05-03T21:34:22.339Z,6.10
2019-05-03T21:39:27.176Z,5.90
2019-05-03T21:44:33.589Z,5.80
2019-05-03T21:49:46.027Z,5.70
2019-05-03T21:54:51.012Z,5.70
2019-05-03T21:59:55.868Z,5.60
2019-05-03T22:05:14.274Z,5.40
2019-05-03T22:10:19.164Z,5.40
2019-05-03T22:15:44.221Z,5.30
2019-05-03T22:20:50.741Z,5.20
2019-05-03T22:25:56.953Z,5.30
2019-05-03T22:31:04.363Z,5.40
2019-05-03T22:36:09.115Z,5.40
2019-05-03T22:41:14.798Z,5.40
2019-05-03T22:46:19.757Z,5.50
2019-05-03T22:51:24.630Z,5.50
2019-05-03T22:56:29.575Z,5.50
2019-05-03T23:01:35.192Z,5.60
2019-05-03T23:06:40.317Z,5.70
2019-05-03T23:11:45.238Z,5.80
2019-05-03T23:16:51.605Z,5.80
2019-05-03T23:21:58.173Z,5.80
2019-05-03T23:27:04.915Z,5.80
2019-05-03T23:32:09.520Z,5.80
2019-05-03T23:37:14.761Z,5.90
2019-05-03T23:42:19.599Z,5.80
2019-05-03T23:47:29.194Z,5.80
2019-05-03T23:52:35.322Z,5.90
2019-05-03T23:57:40.958Z,5.90
